Terminal Aerodrome Forecast
Issued by NWS

Home | Current Version | Previous Version | Text Only | Print | Product List | Glossary On
Versions: 1 2 3 4 5 6 7 8 9 10 11 12 13 14 15 16 17 18 19 20 21 22 23 24
617
FTUS44 KTSA 230520
TAFFYV
TAF
KFYV 230520Z 2306/2406 00000KT P6SM SCT250
     FM230900 17002KT 4SM BR SCT250
     FM231500 17010KT P6SM SCT250
     FM231900 18016G24KT P6SM SCT120 BKN250
     FM240000 18010KT P6SM SCT150=

USA.gov is the U.S. government's official web portal to all federal, state and local government web resources and services.